Pagina principale
METAR-TAF:

METAR-TAF

Aeroporti :

Columbus Municipal Airport

Columbus, Nebraska, Stati Uniti

latitudine: 41-27N, longitudine: 097-20W, altezza: 440 m

Osservazione

Il bollettino è stato emesso 59 minuti fa, alle 17:56 UTC
Vento 16 kt da sud con raffiche fino a 19 kt
Temperature 27°C
Umidità 58%
Pressione 1019 hPa
Visibilità: 14.5 km
Cielo sereno

METAR: KOLU 191756Z AUTO 18016G19KT 9SM CLR 27/18 A3009 RMK AO2 SLP182 T02720178 10272 20189 56016

Ora: 13:55 (18:55 UTC)


TAF: mancante

Osservazioni e previsioni meteorologiche di più di 4000 aeroporti (messaggi METAR e TAF).

Le stazioni disponibili sono rappresentate dai dischi gialli e rossi sulla carta.

Puntare il mouse per vedere il nome della stazione.

Clicca sopra per visualizzare le osservazioni e previsioni meteorologiche.

Per cambiare la mappa : fare clic sui pulsanti verdi con una croce nera per ingrandire, il pulsante verde con un trattino per diminuire, o sulla freccia verde per le mappe adiacenti.


METAR-TAF: